Time;durP1;ratioP1;P1;durP2;ratioP2;P2;SDS_P1;SDS_P2;PMS_P1;PMS_P2;Temp;Humidity;BMP_temperature;BMP_pressure;BME280_temperature;BME280_humidity;BME280_pressure;Samples;Min_cycle;Max_cycle;Signal;HPM_P1;HPM_P2
2023/07/05 00:01:30;;;;;;;3.22;2.05;;;14.40;99.90;;;;;;5096192;28;20054;-74
2023/07/05 00:03:56;;;;;;;2.65;1.50;;;14.50;99.90;;;;;;5095758;28;20022;-74
2023/07/05 00:06:21;;;;;;;3.90;1.55;;;14.40;99.90;;;;;;5095872;28;20119;-74
2023/07/05 00:08:47;;;;;;;2.33;1.50;;;14.40;99.90;;;;;;5076643;28;20032;-73
2023/07/05 00:11:13;;;;;;;2.60;1.48;;;14.40;99.90;;;;;;5077695;28;20028;-74
2023/07/05 00:13:40;;;;;;;3.30;2.20;;;14.40;99.90;;;;;;5095615;28;20024;-73
2023/07/05 00:16:09;;;;;;;6.43;3.50;;;14.40;99.90;;;;;;5095760;28;20097;-73
2023/07/05 00:18:36;;;;;;;5.07;2.85;;;14.60;99.90;;;;;;5095585;28;20067;-74
2023/07/05 00:21:07;;;;;;;4.88;2.10;;;14.60;99.90;;;;;;5095575;28;20112;-74
2023/07/05 00:23:35;;;;;;;4.95;2.28;;;14.70;99.90;;;;;;5099357;28;20484;-73
2023/07/05 00:26:02;;;;;;;3.47;2.20;;;14.70;99.90;;;;;;5115886;28;20039;-74
2023/07/05 00:28:28;;;;;;;5.78;2.28;;;14.70;99.90;;;;;;5115829;28;20072;-73
2023/07/05 00:30:53;;;;;;;3.80;1.42;;;14.70;99.90;;;;;;5116045;28;20039;-74
2023/07/05 00:33:19;;;;;;;2.30;1.48;;;14.60;99.90;;;;;;5115670;28;20026;-74
2023/07/05 00:35:53;;;;;;;2.85;1.63;;;14.60;99.90;;;;;;5115651;28;20024;-73
2023/07/05 00:38:20;;;;;;;3.55;1.60;;;14.60;99.90;;;;;;5115484;28;20154;-73
2023/07/05 00:40:47;;;;;;;3.05;1.10;;;14.50;99.90;;;;;;5115597;28;20449;-73
2023/07/05 00:43:14;;;;;;;2.30;1.48;;;14.50;99.90;;;;;;5115477;28;20047;-73
2023/07/05 00:45:54;;;;;;;1.98;1.13;;;14.50;99.90;;;;;;5115460;28;20076;-73
2023/07/05 00:48:42;;;;;;;2.13;1.30;;;14.50;99.90;;;;;;5115413;28;20027;-74
2023/07/05 00:51:19;;;;;;;2.45;1.10;;;14.50;99.90;;;;;;5115335;28;20024;-74
2023/07/05 00:53:45;;;;;;;2.10;1.30;;;14.60;99.90;;;;;;5115326;28;20113;-74
2023/07/05 00:56:31;;;;;;;2.80;1.20;;;14.50;99.90;;;;;;5115219;28;20031;-73
2023/07/05 00:58:58;;;;;;;2.95;1.23;;;14.50;99.90;;;;;;5115512;28;20019;-74
2023/07/05 01:01:24;;;;;;;2.28;1.15;;;14.50;99.90;;;;;;5115150;28;20035;-73
2023/07/05 01:03:54;;;;;;;1.95;1.00;;;14.60;99.90;;;;;;5114992;28;20019;-73
2023/07/05 01:06:22;;;;;;;2.17;1.23;;;14.50;99.90;;;;;;5096753;28;20035;-74
2023/07/05 01:08:49;;;;;;;2.00;1.17;;;14.50;99.90;;;;;;5096610;28;20034;-74
2023/07/05 01:11:43;;;;;;;2.55;1.48;;;14.40;99.90;;;;;;5114970;28;20031;-74
2023/07/05 01:14:29;;;;;;;2.53;1.42;;;14.30;99.90;;;;;;5114941;28;20028;-73
2023/07/05 01:17:16;;;;;;;3.15;1.40;;;14.30;99.90;;;;;;5115327;28;20028;-73
2023/07/05 01:20:10;;;;;;;3.20;1.30;;;14.20;99.90;;;;;;5114662;28;20536;-74
2023/07/05 01:22:52;;;;;;;2.33;1.15;;;14.20;99.90;;;;;;5114857;28;20020;-73
2023/07/05 01:25:37;;;;;;;2.50;1.25;;;14.20;99.90;;;;;;5115211;28;20011;-74
2023/07/05 01:28:18;;;;;;;2.80;1.33;;;14.30;99.90;;;;;;5114678;28;20073;-74
2023/07/05 01:30:57;;;;;;;2.15;1.10;;;14.20;99.90;;;;;;5114510;28;20051;-74
2023/07/05 01:33:36;;;;;;;3.90;1.42;;;14.30;99.90;;;;;;5114695;28;20080;-73
2023/07/05 01:36:03;;;;;;;3.10;1.20;;;14.20;99.90;;;;;;5114566;28;20024;-73
2023/07/05 01:38:29;;;;;;;2.50;1.48;;;14.20;99.90;;;;;;5096212;28;20515;-74
2023/07/05 01:40:59;;;;;;;2.28;1.17;;;14.20;99.90;;;;;;5114407;28;20111;-74
2023/07/05 01:43:26;;;;;;;5.03;1.20;;;14.10;99.90;;;;;;5114696;28;20094;-74
2023/07/05 01:46:04;;;;;;;2.88;1.50;;;14.10;99.90;;;;;;5114366;28;20035;-74
2023/07/05 01:48:34;;;;;;;1.80;1.17;;;14.10;99.90;;;;;;5114248;28;20519;-74
2023/07/05 01:51:27;;;;;;;5.38;2.97;;;14.10;99.90;;;;;;5114234;28;20030;-74
2023/07/05 01:54:11;;;;;;;9.93;5.95;;;14.10;99.90;;;;;;5114406;28;20080;-74
2023/07/05 01:57:16;;;;;;;6.57;4.60;;;14.00;99.90;;;;;;5114611;28;20026;-74
2023/07/05 01:59:50;;;;;;;6.15;3.70;;;13.90;99.90;;;;;;5114653;28;20043;-74
2023/07/05 02:02:18;;;;;;;4.25;2.95;;;13.90;99.90;;;;;;5114026;28;20024;-73
2023/07/05 02:04:45;;;;;;;3.70;2.70;;;14.00;99.90;;;;;;5113965;28;20477;-74
2023/07/05 02:07:11;;;;;;;3.50;2.00;;;14.00;99.90;;;;;;5113923;28;20033;-74
2023/07/05 02:09:38;;;;;;;3.53;1.95;;;14.00;99.90;;;;;;5114303;28;20125;-73
2023/07/05 02:12:07;;;;;;;4.20;1.50;;;14.10;99.90;;;;;;5113844;28;20081;-74
2023/07/05 02:14:33;;;;;;;6.55;1.63;;;14.10;99.90;;;;;;5114162;28;20040;-74
2023/07/05 02:16:58;;;;;;;2.40;1.20;;;14.10;99.90;;;;;;5113800;28;20028;-74
2023/07/05 02:19:24;;;;;;;3.78;1.25;;;14.00;99.90;;;;;;5096133;28;20062;-73
2023/07/05 02:21:50;;;;;;;2.30;1.30;;;14.00;99.90;;;;;;5095730;28;20504;-74
2023/07/05 02:24:16;;;;;;;3.88;1.27;;;13.90;99.90;;;;;;5095453;28;20044;-74
2023/07/05 02:26:41;;;;;;;4.75;1.58;;;14.00;99.90;;;;;;5095481;28;20119;-74
2023/07/05 02:29:07;;;;;;;3.65;1.10;;;14.00;99.90;;;;;;5113716;28;20040;-74
2023/07/05 02:31:34;;;;;;;2.20;1.33;;;14.00;99.90;;;;;;5113158;28;20547;-73
2023/07/05 02:33:59;;;;;;;2.67;1.20;;;14.00;99.90;;;;;;5113542;28;20031;-74
2023/07/05 02:36:25;;;;;;;2.95;1.10;;;14.00;99.90;;;;;;5113887;28;20024;-74
2023/07/05 02:38:52;;;;;;;2.22;1.10;;;13.90;99.90;;;;;;5113913;28;20423;-74
2023/07/05 02:41:18;;;;;;;1.52;1.10;;;13.90;99.90;;;;;;5113800;28;20448;-74
2023/07/05 02:43:43;;;;;;;4.25;1.40;;;13.90;99.90;;;;;;5113809;28;20103;-74
2023/07/05 02:46:09;;;;;;;2.17;1.10;;;13.90;99.90;;;;;;5114012;28;20469;-73
2023/07/05 02:48:35;;;;;;;2.88;0.90;;;13.90;99.90;;;;;;5113819;28;20035;-74
2023/07/05 02:51:00;;;;;;;2.10;1.30;;;13.90;99.90;;;;;;5113961;28;20081;-74
2023/07/05 02:53:26;;;;;;;3.30;1.42;;;14.00;99.90;;;;;;5113625;28;20389;-74
2023/07/05 02:55:52;;;;;;;1.90;1.20;;;13.90;99.90;;;;;;5113805;28;20106;-74
2023/07/05 02:58:18;;;;;;;3.53;1.40;;;13.80;99.90;;;;;;5113506;28;20020;-73
2023/07/05 03:00:44;;;;;;;2.05;1.30;;;13.80;99.90;;;;;;5095214;28;20106;-74
2023/07/05 03:03:10;;;;;;;2.40;1.10;;;13.70;99.90;;;;;;5113429;28;20043;-74
2023/07/05 03:05:36;;;;;;;1.80;1.05;;;13.70;99.90;;;;;;5095719;28;20033;-74
2023/07/05 03:08:02;;;;;;;3.10;1.30;;;13.60;99.90;;;;;;5078458;28;20511;-74
2023/07/05 03:10:28;;;;;;;2.72;1.30;;;13.60;99.90;;;;;;5113797;28;20027;-74
2023/07/05 03:12:55;;;;;;;1.80;1.00;;;13.60;99.90;;;;;;5113430;28;20032;-74
2023/07/05 03:15:20;;;;;;;2.58;1.08;;;13.60;99.90;;;;;;5095080;28;20063;-74
2023/07/05 03:17:46;;;;;;;1.70;0.90;;;13.60;99.90;;;;;;5113888;28;20112;-74
2023/07/05 03:20:11;;;;;;;2.40;1.00;;;13.60;99.90;;;;;;5113981;28;20031;-75
2023/07/05 03:22:37;;;;;;;3.00;1.25;;;13.60;99.90;;;;;;5113621;28;20030;-74
2023/07/05 03:25:03;;;;;;;2.50;1.10;;;13.60;99.90;;;;;;5115096;28;20023;-74
2023/07/05 03:27:29;;;;;;;3.60;1.00;;;13.60;99.90;;;;;;5113546;28;20106;-74
2023/07/05 03:29:55;;;;;;;2.63;0.90;;;13.50;99.90;;;;;;5113029;28;20081;-75
2023/07/05 03:32:21;;;;;;;1.80;1.00;;;13.40;99.90;;;;;;5113259;28;20043;-74
2023/07/05 03:34:47;;;;;;;2.70;1.02;;;13.30;99.90;;;;;;5113498;28;20038;-74
2023/07/05 03:37:13;;;;;;;1.98;1.10;;;13.20;99.90;;;;;;5113049;28;20028;-75
2023/07/05 03:39:38;;;;;;;3.70;1.50;;;13.20;99.90;;;;;;5113232;28;20032;-75
2023/07/05 03:42:04;;;;;;;3.47;1.30;;;13.00;99.90;;;;;;5112403;28;20481;-74
2023/07/05 03:44:30;;;;;;;4.25;1.58;;;13.10;99.90;;;;;;5113830;28;20119;-74
2023/07/05 03:46:56;;;;;;;2.88;1.30;;;13.00;99.90;;;;;;5116994;28;20055;-74
2023/07/05 03:49:22;;;;;;;3.45;1.10;;;13.00;99.90;;;;;;5116719;28;20110;-74
2023/07/05 03:51:47;;;;;;;1.90;1.05;;;13.00;99.90;;;;;;5116691;28;20028;-74
2023/07/05 03:54:13;;;;;;;2.47;1.23;;;13.00;99.90;;;;;;5116584;28;20031;-74
2023/07/05 03:56:39;;;;;;;1.95;1.20;;;13.00;99.90;;;;;;5098689;28;20032;-74
2023/07/05 03:59:04;;;;;;;3.92;1.40;;;13.10;99.90;;;;;;5098369;28;20023;-74
2023/07/05 04:01:31;;;;;;;2.05;1.17;;;13.10;99.90;;;;;;5098346;28;20032;-74
2023/07/05 04:03:59;;;;;;;1.98;1.13;;;13.20;99.90;;;;;;5116375;28;20020;-74
2023/07/05 04:06:28;;;;;;;2.75;1.30;;;13.20;99.90;;;;;;5116712;28;20031;-74
2023/07/05 04:08:54;;;;;;;2.75;1.17;;;13.30;99.90;;;;;;5116202;28;20504;-74
2023/07/05 04:11:21;;;;;;;2.63;1.20;;;13.30;99.90;;;;;;5116231;28;20039;-74
2023/07/05 04:13:48;;;;;;;2.92;1.25;;;13.20;99.90;;;;;;5116141;28;20084;-74
2023/07/05 04:16:19;;;;;;;1.58;0.90;;;13.20;99.90;;;;;;5116094;28;20034;-75
2023/07/05 04:18:46;;;;;;;1.65;1.00;;;13.20;99.90;;;;;;5116249;28;20027;-74
2023/07/05 04:21:13;;;;;;;2.35;1.00;;;13.30;99.90;;;;;;5114104;28;20032;-74
2023/07/05 04:23:40;;;;;;;4.15;1.20;;;13.40;99.90;;;;;;5115955;28;20028;-74
2023/07/05 04:26:08;;;;;;;3.65;1.27;;;13.40;99.90;;;;;;5115907;28;20366;-74
2023/07/05 04:28:36;;;;;;;2.53;1.27;;;13.50;99.90;;;;;;5115887;28;20030;-75
2023/07/05 04:31:02;;;;;;;1.52;0.88;;;13.50;99.90;;;;;;5097468;28;20031;-74
2023/07/05 04:33:28;;;;;;;1.95;1.10;;;13.60;99.90;;;;;;5098060;28;20046;-74
2023/07/05 04:35:58;;;;;;;4.22;1.40;;;13.70;99.90;;;;;;5115730;28;20485;-74
2023/07/05 04:38:25;;;;;;;3.20;1.38;;;13.70;99.90;;;;;;5115862;28;20026;-74
2023/07/05 04:40:51;;;;;;;1.90;0.90;;;13.80;99.90;;;;;;5115656;28;20502;-74
2023/07/05 04:43:17;;;;;;;3.25;1.20;;;13.90;99.90;;;;;;5115838;28;20020;-73
2023/07/05 04:45:54;;;;;;;3.15;1.15;;;13.90;99.90;;;;;;5097272;28;20073;-73
2023/07/05 04:48:20;;;;;;;2.20;1.23;;;14.00;99.90;;;;;;5115499;28;20381;-73
2023/07/05 04:50:52;;;;;;;2.05;1.00;;;14.00;99.90;;;;;;5103103;27;20028;-73
2023/07/05 04:53:22;;;;;;;3.03;1.00;;;14.00;99.90;;;;;;5133465;27;20099;-73
2023/07/05 04:55:50;;;;;;;2.83;1.10;;;14.00;99.90;;;;;;5114529;28;20023;-73
2023/07/05 04:58:16;;;;;;;1.83;1.10;;;14.00;99.90;;;;;;5113500;28;20019;-73
2023/07/05 05:00:46;;;;;;;2.03;1.30;;;14.10;99.90;;;;;;5114057;28;20030;-73
2023/07/05 05:03:13;;;;;;;3.53;1.38;;;14.10;99.90;;;;;;5096877;28;20023;-73
2023/07/05 05:05:39;;;;;;;2.15;1.20;;;14.10;99.90;;;;;;5115241;28;20073;-74
2023/07/05 05:08:05;;;;;;;2.25;1.05;;;14.10;99.90;;;;;;5115173;28;20027;-74
2023/07/05 05:10:31;;;;;;;2.50;1.10;;;14.10;99.90;;;;;;5096905;28;20024;-74
2023/07/05 05:12:56;;;;;;;1.98;1.10;;;14.20;99.90;;;;;;5115175;28;20103;-73
2023/07/05 05:15:22;;;;;;;2.40;1.10;;;14.20;99.90;;;;;;5115002;28;20044;-74
2023/07/05 05:17:48;;;;;;;2.88;1.30;;;14.20;99.90;;;;;;5114898;28;20066;-74
2023/07/05 05:20:14;;;;;;;2.40;1.33;;;14.20;99.90;;;;;;5114943;28;20030;-74
2023/07/05 05:22:40;;;;;;;2.33;1.40;;;14.30;99.90;;;;;;5114836;28;20031;-73
2023/07/05 05:25:06;;;;;;;1.90;1.05;;;14.30;99.90;;;;;;5115411;28;20389;-74
2023/07/05 05:27:31;;;;;;;2.15;1.20;;;14.40;99.90;;;;;;5114798;28;20031;-74
2023/07/05 05:29:57;;;;;;;3.28;1.17;;;14.40;99.90;;;;;;5114585;28;20023;-74
2023/07/05 05:32:23;;;;;;;2.22;1.20;;;14.50;99.90;;;;;;5114683;28;20422;-73
2023/07/05 05:34:48;;;;;;;2.90;1.27;;;14.50;99.90;;;;;;5114647;28;20448;-75
2023/07/05 05:37:14;;;;;;;1.70;1.00;;;14.50;99.90;;;;;;5114439;28;20489;-75
2023/07/05 05:39:40;;;;;;;5.38;1.13;;;14.50;99.90;;;;;;5095747;28;20051;-73
2023/07/05 05:42:05;;;;;;;4.53;1.30;;;14.60;99.90;;;;;;5113794;28;20058;-73
2023/07/05 05:44:31;;;;;;;3.28;1.13;;;14.60;99.90;;;;;;5114778;28;20049;-74
2023/07/05 05:46:56;;;;;;;2.25;1.45;;;14.70;99.90;;;;;;5114452;28;20020;-74
2023/07/05 05:49:22;;;;;;;4.03;1.40;;;14.70;99.90;;;;;;5114383;28;20019;-73
2023/07/05 05:51:48;;;;;;;2.55;1.40;;;14.70;99.90;;;;;;5114387;28;20031;-74
2023/07/05 05:54:13;;;;;;;2.05;1.20;;;14.80;99.90;;;;;;5079499;28;20542;-74
2023/07/05 05:56:39;;;;;;;2.25;1.33;;;14.80;99.90;;;;;;5114561;28;20473;-74
2023/07/05 05:59:05;;;;;;;1.90;1.20;;;14.90;99.90;;;;;;5114482;28;20019;-74
2023/07/05 06:01:30;;;;;;;2.50;1.15;;;14.90;99.90;;;;;;5114192;28;20023;-74
2023/07/05 06:03:56;;;;;;;2.95;1.23;;;14.90;99.90;;;;;;5114234;28;20374;-74
2023/07/05 06:06:22;;;;;;;2.97;1.45;;;15.00;99.90;;;;;;5113756;28;20495;-74
2023/07/05 06:08:47;;;;;;;2.90;1.63;;;14.90;99.90;;;;;;5114218;28;20031;-74
2023/07/05 06:11:13;;;;;;;3.13;1.25;;;15.00;99.90;;;;;;5114017;28;20032;-74
2023/07/05 06:13:39;;;;;;;2.50;1.23;;;15.00;99.90;;;;;;5095871;28;20028;-74
2023/07/05 06:16:04;;;;;;;3.03;1.17;;;15.00;99.90;;;;;;5113888;28;20035;-74
2023/07/05 06:18:30;;;;;;;1.98;1.30;;;15.00;99.90;;;;;;5114532;28;20483;-74
2023/07/05 06:20:56;;;;;;;2.00;1.13;;;15.10;99.90;;;;;;5113948;28;20102;-74
2023/07/05 06:23:22;;;;;;;2.00;1.25;;;15.10;99.90;;;;;;5113791;28;20035;-73
2023/07/05 06:25:49;;;;;;;2.55;1.30;;;15.10;99.90;;;;;;5113886;28;20032;-74
2023/07/05 06:28:16;;;;;;;3.03;1.40;;;15.20;99.90;;;;;;5114076;28;20081;-74
2023/07/05 06:30:44;;;;;;;3.30;1.30;;;15.30;99.90;;;;;;5113717;28;20028;-74
2023/07/05 06:33:10;;;;;;;2.38;1.40;;;15.40;99.90;;;;;;5095915;28;20047;-73
2023/07/05 06:35:36;;;;;;;3.72;1.20;;;15.40;99.90;;;;;;5095528;28;20028;-74
2023/07/05 06:38:02;;;;;;;3.03;1.33;;;15.50;99.90;;;;;;5114303;28;20032;-74
2023/07/05 06:40:29;;;;;;;2.90;1.15;;;15.60;99.90;;;;;;5113929;28;20027;-74
2023/07/05 06:42:54;;;;;;;2.95;1.52;;;15.70;99.90;;;;;;5113579;28;20110;-73
2023/07/05 06:45:20;;;;;;;2.35;1.50;;;15.80;99.90;;;;;;5113966;28;20124;-74
2023/07/05 06:47:46;;;;;;;3.10;1.52;;;15.90;99.90;;;;;;5095548;28;20039;-74
2023/07/05 06:50:12;;;;;;;5.18;1.80;;;15.90;99.90;;;;;;5095500;28;20031;-74
2023/07/05 06:52:39;;;;;;;4.15;1.50;;;16.00;99.90;;;;;;5113747;28;20032;-74
2023/07/05 06:55:05;;;;;;;3.33;2.03;;;16.10;99.90;;;;;;5113888;28;20527;-74
2023/07/05 06:57:31;;;;;;;3.17;1.75;;;16.20;99.90;;;;;;5113490;28;20032;-74
2023/07/05 06:59:57;;;;;;;6.93;2.50;;;16.20;99.90;;;;;;5113525;28;20028;-74
2023/07/05 07:02:23;;;;;;;5.05;2.72;;;16.30;99.90;;;;;;5113402;28;20123;-73
2023/07/05 07:04:48;;;;;;;4.70;2.33;;;16.40;99.90;;;;;;5113495;28;20024;-74
2023/07/05 07:07:14;;;;;;;5.32;2.15;;;16.40;99.90;;;;;;5113442;28;20501;-73
2023/07/05 07:09:40;;;;;;;5.47;2.35;;;16.50;99.90;;;;;;5078504;28;20509;-74
2023/07/05 07:12:07;;;;;;;3.15;1.73;;;16.60;99.90;;;;;;5113856;28;20023;-73
2023/07/05 07:14:33;;;;;;;4.35;2.10;;;16.70;99.90;;;;;;5113837;28;20499;-74
2023/07/05 07:16:59;;;;;;;4.28;1.70;;;16.70;99.90;;;;;;5113229;28;20037;-74
2023/07/05 07:19:25;;;;;;;3.92;1.90;;;16.80;99.90;;;;;;5116541;28;20481;-73
2023/07/05 07:21:51;;;;;;;3.45;1.48;;;17.00;99.90;;;;;;5117243;28;20107;-74
2023/07/05 07:24:17;;;;;;;4.30;1.48;;;17.10;99.90;;;;;;5117140;28;20020;-73
2023/07/05 07:26:42;;;;;;;4.07;1.45;;;17.30;99.90;;;;;;5117147;28;20405;-74
2023/07/05 07:29:10;;;;;;;3.22;1.30;;;17.40;99.90;;;;;;5117712;28;20027;-73
2023/07/05 07:31:36;;;;;;;3.08;1.48;;;17.60;99.90;;;;;;5117158;28;20059;-74
2023/07/05 07:34:02;;;;;;;2.42;1.40;;;17.70;99.90;;;;;;5116771;28;20084;-74
2023/07/05 07:36:30;;;;;;;2.80;1.50;;;17.70;99.90;;;;;;5116855;28;20024;-73
2023/07/05 07:38:56;;;;;;;4.75;1.55;;;17.90;99.90;;;;;;5116870;28;20538;-74
2023/07/05 07:41:34;;;;;;;3.00;1.35;;;18.00;99.90;;;;;;5117138;28;20027;-74
2023/07/05 07:44:02;;;;;;;2.38;1.20;;;18.10;99.90;;;;;;5117044;28;20018;-72
2023/07/05 07:46:30;;;;;;;4.65;1.73;;;18.30;99.90;;;;;;5116932;28;20031;-74
2023/07/05 07:48:57;;;;;;;4.18;1.55;;;18.40;99.90;;;;;;5117004;28;20020;-74
2023/07/05 07:51:28;;;;;;;3.15;1.48;;;18.50;99.90;;;;;;5116639;28;20027;-73
2023/07/05 07:53:55;;;;;;;3.28;1.65;;;18.60;99.90;;;;;;5117247;28;20024;-74
2023/07/05 07:56:22;;;;;;;3.28;1.60;;;18.70;99.90;;;;;;5116936;28;20024;-73
2023/07/05 07:58:50;;;;;;;2.92;1.40;;;18.90;99.90;;;;;;5116774;28;20023;-74
2023/07/05 08:01:30;;;;;;;2.15;1.27;;;19.00;99.90;;;;;;5116923;28;20496;-75
2023/07/05 08:03:57;;;;;;;2.88;1.55;;;19.10;99.90;;;;;;5116416;28;20092;-74
2023/07/05 08:06:36;;;;;;;3.75;1.70;;;19.30;99.90;;;;;;5116519;28;20028;-74
2023/07/05 08:09:02;;;;;;;3.67;1.52;;;19.50;99.90;;;;;;5116701;28;20027;-75
2023/07/05 08:11:29;;;;;;;4.43;1.90;;;19.70;99.90;;;;;;5116352;28;20089;-75
2023/07/05 08:13:54;;;;;;;2.75;1.40;;;20.00;99.90;;;;;;5116172;28;20072;-74
2023/07/05 08:16:20;;;;;;;3.08;1.65;;;20.20;99.90;;;;;;5098593;28;20043;-74
2023/07/05 08:18:46;;;;;;;2.92;1.33;;;20.20;99.90;;;;;;5116537;28;20019;-75
2023/07/05 08:21:15;;;;;;;3.63;1.40;;;20.20;99.90;;;;;;5097799;28;20032;-75
2023/07/05 08:23:42;;;;;;;4.97;1.48;;;20.20;99.90;;;;;;5115925;28;20030;-74
2023/07/05 08:26:08;;;;;;;2.00;1.30;;;20.20;99.90;;;;;;5116257;28;20542;-75
2023/07/05 08:28:34;;;;;;;2.00;1.20;;;20.20;99.90;;;;;;5116441;28;20024;-74
2023/07/05 08:31:02;;;;;;;2.13;1.20;;;20.40;99.90;;;;;;5114964;28;20036;-74
2023/07/05 08:33:31;;;;;;;2.60;1.50;;;20.30;99.90;;;;;;5115777;28;20531;-74
2023/07/05 08:36:09;;;;;;;3.28;1.40;;;20.30;99.90;;;;;;5115548;28;20107;-74
2023/07/05 08:38:39;;;;;;;5.18;1.45;;;20.30;99.90;;;;;;5115641;28;20493;-74
2023/07/05 08:41:31;;;;;;;2.97;1.60;;;20.20;99.90;;;;;;5116001;28;20019;-74
2023/07/05 08:44:44;;;;;;;3.47;1.67;;;20.20;99.90;;;;;;5097836;28;20035;-74
2023/07/05 08:47:13;;;;;;;6.45;1.70;;;20.10;99.90;;;;;;5093403;28;20595;-75
2023/07/05 08:49:47;;;;;;;3.65;1.55;;;20.00;99.90;;;;;;5115493;28;20028;-73
2023/07/05 08:52:24;;;;;;;2.50;1.42;;;20.10;99.90;;;;;;5115466;28;20031;-73
2023/07/05 08:55:03;;;;;;;3.20;1.52;;;20.30;99.90;;;;;;5116016;28;20027;-75
2023/07/05 08:57:37;;;;;;;2.25;1.52;;;20.50;99.90;;;;;;5116090;28;20381;-75
2023/07/05 09:00:11;;;;;;;5.00;1.65;;;20.70;99.90;;;;;;5115897;28;20339;-74
2023/07/05 09:02:38;;;;;;;3.60;1.58;;;20.80;99.90;;;;;;5096933;28;20027;-74
2023/07/05 09:05:13;;;;;;;3.63;1.52;;;21.00;99.90;;;;;;5115804;28;20469;-74
2023/07/05 09:07:48;;;;;;;5.63;1.88;;;21.10;99.90;;;;;;5116410;28;20020;-74
2023/07/05 09:10:50;;;;;;;2.90;1.42;;;21.30;99.90;;;;;;5115899;28;20065;-75
2023/07/05 09:13:20;;;;;;;;;;;21.40;99.90;;;;;;5116923;28;20419;-74
2023/07/05 09:15:55;;;;;;;2.53;1.40;;;21.60;99.90;;;;;;5115029;28;20391;-73
2023/07/05 09:18:55;;;;;;;2.63;1.30;;;21.70;99.90;;;;;;5115336;28;20030;-72
2023/07/05 09:21:40;;;;;;;4.33;1.67;;;21.90;99.90;;;;;;5024811;28;20116;-73
2023/07/05 09:24:30;;;;;;;2.65;1.10;;;22.10;99.90;;;;;;5096419;28;20266;-74
2023/07/05 09:27:10;;;;;;;4.97;1.65;;;22.30;99.90;;;;;;5114628;28;20059;-75
2023/07/05 09:29:36;;;;;;;3.88;1.30;;;22.40;99.90;;;;;;5096352;28;20027;-73
2023/07/05 09:32:09;;;;;;;2.88;1.35;;;22.50;99.90;;;;;;5115251;28;20047;-78
2023/07/05 09:34:49;;;;;;;5.57;1.58;;;22.50;99.90;;;;;;5114538;28;20024;-73
2023/07/05 09:37:22;;;;;;;2.53;1.43;;;22.60;99.90;;;;;;5114722;28;20024;-72
2023/07/05 09:40:17;;;;;;;2.08;1.10;;;22.60;99.90;;;;;;5114438;28;20496;-73
2023/07/05 09:43:07;;;;;;;2.67;1.40;;;22.60;99.90;;;;;;5114476;28;20059;-72
2023/07/05 09:45:33;;;;;;;3.38;1.30;;;22.60;99.90;;;;;;5114502;28;20030;-72
2023/07/05 09:48:01;;;;;;;4.35;1.40;;;22.80;99.90;;;;;;5114456;28;20032;-72
2023/07/05 09:50:27;;;;;;;5.55;1.38;;;22.90;99.90;;;;;;5114365;28;20405;-72
2023/07/05 09:53:17;;;;;;;4.07;1.40;;;23.00;99.90;;;;;;5114250;28;20370;-72
2023/07/05 09:56:10;;;;;;;3.15;1.30;;;23.00;99.90;;;;;;5113639;28;20035;-73
2023/07/05 09:58:37;;;;;;;2.55;1.42;;;23.10;99.50;;;;;;5094660;28;20404;-72
2023/07/05 10:01:06;;;;;;;2.63;1.65;;;23.20;99.90;;;;;;5113330;28;20056;-72
2023/07/05 10:03:36;;;;;;;4.18;1.55;;;23.30;99.90;;;;;;5114749;28;20023;-73
2023/07/05 10:06:07;;;;;;;2.83;1.50;;;23.50;99.90;;;;;;5111458;28;20024;-72
2023/07/05 10:08:43;;;;;;;3.42;1.52;;;23.60;99.90;;;;;;5104371;28;20065;-72
2023/07/05 10:11:26;;;;;;;4.82;1.45;;;23.80;96.50;;;;;;5104259;28;20405;-73
2023/07/05 10:14:16;;;;;;;4.35;1.70;;;24.00;97.10;;;;;;5106795;28;20022;-72
2023/07/05 10:17:06;;;;;;;3.92;1.50;;;24.10;96.10;;;;;;5101833;28;20036;-73
2023/07/05 10:19:38;;;;;;;5.22;1.40;;;24.30;95.30;;;;;;5114579;28;20106;-73
2023/07/05 10:22:26;;;;;;;2.70;1.42;;;24.40;94.30;;;;;;5114050;28;20477;-73
2023/07/05 10:24:57;;;;;;;3.03;1.38;;;24.40;93.80;;;;;;5113888;28;20051;-72
2023/07/05 10:27:36;;;;;;;3.38;1.48;;;24.60;94.00;;;;;;5113908;28;20030;-73
2023/07/05 10:30:14;;;;;;;2.55;1.40;;;24.70;93.70;;;;;;5113933;28;20023;-73
2023/07/05 10:32:41;;;;;;;3.58;1.35;;;24.70;92.80;;;;;;5113940;28;20027;-73
2023/07/05 10:35:20;;;;;;;2.30;1.23;;;24.70;91.00;;;;;;5113720;28;20038;-73
2023/07/05 10:37:46;;;;;;;2.45;1.38;;;24.70;91.30;;;;;;5113630;28;20115;-73
2023/07/05 10:40:12;;;;;;;3.70;1.30;;;24.70;92.30;;;;;;5113711;28;20103;-73
2023/07/05 10:42:41;;;;;;;2.83;1.33;;;24.80;90.60;;;;;;5113543;28;20026;-73
2023/07/05 10:45:14;;;;;;;2.90;1.58;;;24.80;88.50;;;;;;5113807;28;20023;-73
2023/07/05 10:47:41;;;;;;;4.80;1.83;;;24.70;90.00;;;;;;5113577;28;20030;-73
2023/07/05 10:50:09;;;;;;;3.55;1.35;;;24.80;90.10;;;;;;5113838;28;20023;-73
2023/07/05 10:52:36;;;;;;;4.57;1.67;;;24.90;88.60;;;;;;5113828;28;20027;-73
2023/07/05 10:55:21;;;;;;;3.63;1.50;;;25.00;89.80;;;;;;5099401;28;20500;-73
2023/07/05 10:58:05;;;;;;;2.78;1.23;;;25.00;87.10;;;;;;5117738;28;20027;-73
2023/07/05 11:00:39;;;;;;;3.75;1.67;;;25.10;88.80;;;;;;5117733;28;20050;-72
2023/07/05 11:03:21;;;;;;;2.42;1.27;;;25.10;90.00;;;;;;5117541;28;20084;-72
2023/07/05 11:05:51;;;;;;;3.70;1.30;;;25.10;88.70;;;;;;5117992;28;20058;-73
2023/07/05 11:08:29;;;;;;;2.58;1.27;;;25.30;89.30;;;;;;5117829;28;20127;-73
2023/07/05 11:11:23;;;;;;;4.90;1.65;;;25.30;86.10;;;;;;5117522;28;20102;-73
2023/07/05 11:13:51;;;;;;;3.50;1.40;;;25.40;89.30;;;;;;5095975;28;20031;-73
2023/07/05 11:16:23;;;;;;;2.95;1.40;;;25.40;88.40;;;;;;5117275;28;20027;-73
2023/07/05 11:18:58;;;;;;;2.38;1.50;;;25.40;86.40;;;;;;5117542;28;20434;-73
2023/07/05 11:21:50;;;;;;;2.72;1.40;;;25.50;84.10;;;;;;5117706;28;20403;-74
2023/07/05 11:24:31;;;;;;;3.25;1.33;;;25.60;85.90;;;;;;5112969;28;20111;-74
2023/07/05 11:26:57;;;;;;;2.65;1.58;;;25.80;82.40;;;;;;5117251;28;20026;-74
2023/07/05 11:29:32;;;;;;;3.53;1.52;;;25.80;87.10;;;;;;5117131;28;20038;-74
2023/07/05 11:32:01;;;;;;;2.33;1.40;;;25.80;83.80;;;;;;5116993;28;20043;-74
2023/07/05 11:34:27;;;;;;;3.50;1.55;;;25.80;83.30;;;;;;5116948;28;20020;-74
2023/07/05 11:36:54;;;;;;;3.00;1.70;;;25.80;85.00;;;;;;5116855;28;20031;-74
2023/07/05 11:39:40;;;;;;;2.30;1.30;;;25.90;82.40;;;;;;5116973;28;20015;-73
2023/07/05 11:42:15;;;;;;;4.10;1.50;;;26.00;84.00;;;;;;5117298;28;20110;-73
2023/07/05 11:44:44;;;;;;;4.60;1.85;;;26.10;83.70;;;;;;5116841;28;20019;-73
2023/07/05 11:47:33;;;;;;;3.17;1.65;;;26.10;80.80;;;;;;5116733;28;20020;-73
2023/07/05 11:50:08;;;;;;;4.15;1.65;;;26.00;81.40;;;;;;5101197;28;20085;-73
2023/07/05 11:52:58;;;;;;;3.30;1.50;;;26.00;82.20;;;;;;5116559;28;20041;-73
2023/07/05 11:55:33;;;;;;;4.60;1.80;;;26.10;82.10;;;;;;5116609;28;20366;-73
2023/07/05 11:58:30;;;;;;;2.75;1.27;;;26.10;82.50;;;;;;5116826;28;20026;-73
2023/07/05 12:00:59;;;;;;;4.65;1.60;;;26.10;85.40;;;;;;5078330;28;20024;-73
2023/07/05 12:03:29;;;;;;;3.90;1.90;;;26.20;82.40;;;;;;5117035;28;20469;-73
2023/07/05 12:05:59;;;;;;;3.45;1.98;;;26.20;84.60;;;;;;5115105;28;20015;-73
2023/07/05 12:09:00;;;;;;;7.03;1.67;;;26.00;84.20;;;;;;5116414;28;20051;-73
2023/07/05 12:11:33;;;;;;;3.97;1.50;;;26.10;84.00;;;;;;5081389;28;20058;-73
2023/07/05 12:14:00;;;;;;;3.78;1.70;;;26.10;85.10;;;;;;5116521;28;20027;-73
2023/07/05 12:16:28;;;;;;;5.50;1.92;;;26.10;83.30;;;;;;5116159;28;20114;-73
2023/07/05 12:18:54;;;;;;;3.15;1.48;;;26.20;81.80;;;;;;5097885;28;20032;-73
2023/07/05 12:21:20;;;;;;;3.38;1.60;;;26.20;82.90;;;;;;5116284;28;20078;-73
2023/07/05 12:23:50;;;;;;;5.85;1.65;;;26.30;82.80;;;;;;5116308;28;20016;-73
2023/07/05 12:26:26;;;;;;;5.05;1.60;;;26.30;83.30;;;;;;5116093;28;20050;-73
2023/07/05 12:28:52;;;;;;;2.60;1.60;;;26.30;86.00;;;;;;5097699;28;20028;-73
2023/07/05 12:31:20;;;;;;;3.90;1.60;;;26.50;85.60;;;;;;5097553;28;20035;-73
2023/07/05 12:33:55;;;;;;;5.93;1.65;;;26.40;85.60;;;;;;5115765;28;20043;-73
2023/07/05 12:36:22;;;;;;;4.03;1.90;;;26.40;83.20;;;;;;5115107;28;20036;-73
2023/07/05 12:39:11;;;;;;;8.02;1.70;;;26.40;81.80;;;;;;5116024;28;20481;-73
2023/07/05 12:41:37;;;;;;;4.05;1.73;;;26.30;81.90;;;;;;5115626;28;20126;-73
2023/07/05 12:44:16;;;;;;;4.03;1.55;;;26.20;80.80;;;;;;5115640;28;20508;-73
2023/07/05 12:46:42;;;;;;;2.67;1.52;;;26.00;81.10;;;;;;5116201;28;20019;-73
2023/07/05 12:49:18;;;;;;;3.45;1.70;;;25.70;82.20;;;;;;5115588;28;20032;-73
2023/07/05 12:51:53;;;;;;;3.25;1.90;;;25.20;83.90;;;;;;5115624;28;20548;-73
2023/07/05 12:54:19;;;;;;;4.70;2.03;;;24.80;84.30;;;;;;5115492;28;20367;-73
2023/07/05 12:56:46;;;;;;;2.72;1.60;;;24.40;85.70;;;;;;5115340;28;20072;-73
2023/07/05 12:59:34;;;;;;;4.93;1.60;;;24.20;87.00;;;;;;5115419;28;20019;-73
2023/07/05 13:02:04;;;;;;;5.15;2.00;;;24.00;87.30;;;;;;5115677;28;20404;-73
2023/07/05 13:04:32;;;;;;;4.50;1.98;;;23.90;87.70;;;;;;5115960;28;20073;-73
2023/07/05 13:07:04;;;;;;;8.55;2.72;;;23.60;89.20;;;;;;5115271;28;20027;-73